sensor_id;sensor_type;location;lat;lon;timestamp;P1;durP1;ratioP1;P2;durP2;ratioP2
51438;SDS011;38816;51.142;-0.974;2022-08-21T00:01:17;19.92;;;2.80;;
51438;SDS011;38816;51.142;-0.974;2022-08-21T00:03:46;19.20;;;2.90;;
51438;SDS011;38816;51.142;-0.974;2022-08-21T00:06:12;17.58;;;2.90;;
51438;SDS011;38816;51.142;-0.974;2022-08-21T00:08:38;11.23;;;2.10;;
51438;SDS011;38816;51.142;-0.974;2022-08-21T00:11:04;15.65;;;2.42;;
51438;SDS011;38816;51.142;-0.974;2022-08-21T00:13:30;20.88;;;3.65;;
51438;SDS011;38816;51.142;-0.974;2022-08-21T00:15:57;14.10;;;2.42;;
51438;SDS011;38816;51.142;-0.974;2022-08-21T00:18:23;18.95;;;2.47;;
51438;SDS011;38816;51.142;-0.974;2022-08-21T00:20:48;14.20;;;2.70;;
51438;SDS011;38816;51.142;-0.974;2022-08-21T00:23:14;30.95;;;3.38;;
51438;SDS011;38816;51.142;-0.974;2022-08-21T00:25:40;12.27;;;2.65;;
51438;SDS011;38816;51.142;-0.974;2022-08-21T00:28:07;19.65;;;3.05;;
51438;SDS011;38816;51.142;-0.974;2022-08-21T00:30:33;13.23;;;2.45;;
51438;SDS011;38816;51.142;-0.974;2022-08-21T00:32:58;14.23;;;2.42;;
51438;SDS011;38816;51.142;-0.974;2022-08-21T00:35:26;20.88;;;2.78;;
51438;SDS011;38816;51.142;-0.974;2022-08-21T00:37:54;13.77;;;2.30;;
51438;SDS011;38816;51.142;-0.974;2022-08-21T00:40:22;12.95;;;2.33;;
51438;SDS011;38816;51.142;-0.974;2022-08-21T00:42:51;14.88;;;2.50;;
51438;SDS011;38816;51.142;-0.974;2022-08-21T00:45:16;18.00;;;2.88;;
51438;SDS011;38816;51.142;-0.974;2022-08-21T00:47:41;10.38;;;1.85;;
51438;SDS011;38816;51.142;-0.974;2022-08-21T00:50:07;18.67;;;2.55;;
51438;SDS011;38816;51.142;-0.974;2022-08-21T00:52:36;14.23;;;2.40;;
51438;SDS011;38816;51.142;-0.974;2022-08-21T00:55:03;13.10;;;2.20;;
51438;SDS011;38816;51.142;-0.974;2022-08-21T00:57:34;16.67;;;2.75;;
51438;SDS011;38816;51.142;-0.974;2022-08-21T01:00:09;17.08;;;2.95;;
51438;SDS011;38816;51.142;-0.974;2022-08-21T01:02:37;17.92;;;2.42;;
51438;SDS011;38816;51.142;-0.974;2022-08-21T01:05:03;14.57;;;2.30;;
51438;SDS011;38816;51.142;-0.974;2022-08-21T01:07:29;18.95;;;2.65;;
51438;SDS011;38816;51.142;-0.974;2022-08-21T01:09:56;16.17;;;2.80;;
51438;SDS011;38816;51.142;-0.974;2022-08-21T01:12:21;28.15;;;3.60;;
51438;SDS011;38816;51.142;-0.974;2022-08-21T01:14:48;17.88;;;2.92;;
51438;SDS011;38816;51.142;-0.974;2022-08-21T01:17:14;16.42;;;2.28;;
51438;SDS011;38816;51.142;-0.974;2022-08-21T01:19:41;18.95;;;2.67;;
51438;SDS011;38816;51.142;-0.974;2022-08-21T01:22:08;14.02;;;2.28;;
51438;SDS011;38816;51.142;-0.974;2022-08-21T01:24:33;12.98;;;2.00;;
51438;SDS011;38816;51.142;-0.974;2022-08-21T01:26:59;18.52;;;2.53;;
51438;SDS011;38816;51.142;-0.974;2022-08-21T01:31:53;13.98;;;2.50;;
51438;SDS011;38816;51.142;-0.974;2022-08-21T01:34:19;19.50;;;2.85;;
51438;SDS011;38816;51.142;-0.974;2022-08-21T01:36:45;15.13;;;2.70;;
51438;SDS011;38816;51.142;-0.974;2022-08-21T01:39:12;13.57;;;2.72;;
51438;SDS011;38816;51.142;-0.974;2022-08-21T01:41:38;23.33;;;3.15;;
51438;SDS011;38816;51.142;-0.974;2022-08-21T01:44:03;11.93;;;2.50;;
51438;SDS011;38816;51.142;-0.974;2022-08-21T01:46:29;15.90;;;2.85;;
51438;SDS011;38816;51.142;-0.974;2022-08-21T01:48:55;12.50;;;2.83;;
51438;SDS011;38816;51.142;-0.974;2022-08-21T01:51:21;15.02;;;2.45;;
51438;SDS011;38816;51.142;-0.974;2022-08-21T01:53:47;14.57;;;2.95;;
51438;SDS011;38816;51.142;-0.974;2022-08-21T01:56:13;12.55;;;2.30;;
51438;SDS011;38816;51.142;-0.974;2022-08-21T01:58:41;18.77;;;3.03;;
51438;SDS011;38816;51.142;-0.974;2022-08-21T02:04:06;16.92;;;3.20;;
51438;SDS011;38816;51.142;-0.974;2022-08-21T02:06:33;15.75;;;2.53;;
51438;SDS011;38816;51.142;-0.974;2022-08-21T02:08:59;12.73;;;2.38;;
51438;SDS011;38816;51.142;-0.974;2022-08-21T02:11:25;17.20;;;2.85;;
51438;SDS011;38816;51.142;-0.974;2022-08-21T02:13:51;15.00;;;2.97;;
51438;SDS011;38816;51.142;-0.974;2022-08-21T02:16:16;12.68;;;2.50;;
51438;SDS011;38816;51.142;-0.974;2022-08-21T02:18:42;11.60;;;2.78;;
51438;SDS011;38816;51.142;-0.974;2022-08-21T02:21:08;18.67;;;3.22;;
51438;SDS011;38816;51.142;-0.974;2022-08-21T02:23:34;12.32;;;2.47;;
51438;SDS011;38816;51.142;-0.974;2022-08-21T02:26:01;19.17;;;2.67;;
51438;SDS011;38816;51.142;-0.974;2022-08-21T02:28:28;11.45;;;2.40;;
51438;SDS011;38816;51.142;-0.974;2022-08-21T02:30:55;9.50;;;2.17;;
51438;SDS011;38816;51.142;-0.974;2022-08-21T02:33:21;13.73;;;2.65;;
51438;SDS011;38816;51.142;-0.974;2022-08-21T02:35:47;13.98;;;2.38;;
51438;SDS011;38816;51.142;-0.974;2022-08-21T02:38:14;19.85;;;3.10;;
51438;SDS011;38816;51.142;-0.974;2022-08-21T02:40:43;13.50;;;2.33;;
51438;SDS011;38816;51.142;-0.974;2022-08-21T02:43:10;13.63;;;2.63;;
51438;SDS011;38816;51.142;-0.974;2022-08-21T02:45:36;13.00;;;2.47;;
51438;SDS011;38816;51.142;-0.974;2022-08-21T02:48:10;20.05;;;2.78;;
51438;SDS011;38816;51.142;-0.974;2022-08-21T02:50:40;16.73;;;2.70;;
51438;SDS011;38816;51.142;-0.974;2022-08-21T02:53:08;17.77;;;2.85;;
51438;SDS011;38816;51.142;-0.974;2022-08-21T02:55:35;15.02;;;2.70;;
51438;SDS011;38816;51.142;-0.974;2022-08-21T02:58:03;17.02;;;2.65;;
51438;SDS011;38816;51.142;-0.974;2022-08-21T03:00:30;13.93;;;2.58;;
51438;SDS011;38816;51.142;-0.974;2022-08-21T03:02:57;11.90;;;2.50;;
51438;SDS011;38816;51.142;-0.974;2022-08-21T03:05:24;12.48;;;2.70;;
51438;SDS011;38816;51.142;-0.974;2022-08-21T03:07:50;20.30;;;3.20;;
51438;SDS011;38816;51.142;-0.974;2022-08-21T03:10:17;22.30;;;3.08;;
51438;SDS011;38816;51.142;-0.974;2022-08-21T03:12:44;16.15;;;2.53;;
51438;SDS011;38816;51.142;-0.974;2022-08-21T03:15:11;11.20;;;2.45;;
51438;SDS011;38816;51.142;-0.974;2022-08-21T03:17:39;12.57;;;2.78;;
51438;SDS011;38816;51.142;-0.974;2022-08-21T03:20:05;14.50;;;2.80;;
51438;SDS011;38816;51.142;-0.974;2022-08-21T03:22:32;19.65;;;3.08;;
51438;SDS011;38816;51.142;-0.974;2022-08-21T03:24:57;20.95;;;2.85;;
51438;SDS011;38816;51.142;-0.974;2022-08-21T03:27:24;19.00;;;3.03;;
51438;SDS011;38816;51.142;-0.974;2022-08-21T03:29:51;11.07;;;2.70;;
51438;SDS011;38816;51.142;-0.974;2022-08-21T03:32:17;16.48;;;2.97;;
51438;SDS011;38816;51.142;-0.974;2022-08-21T03:34:43;25.77;;;3.53;;
51438;SDS011;38816;51.142;-0.974;2022-08-21T03:37:08;22.15;;;3.47;;
51438;SDS011;38816;51.142;-0.974;2022-08-21T03:39:34;12.07;;;2.78;;
51438;SDS011;38816;51.142;-0.974;2022-08-21T03:42:00;20.67;;;3.50;;
51438;SDS011;38816;51.142;-0.974;2022-08-21T03:44:26;14.20;;;3.20;;
51438;SDS011;38816;51.142;-0.974;2022-08-21T03:46:55;14.27;;;3.17;;
51438;SDS011;38816;51.142;-0.974;2022-08-21T03:49:22;13.73;;;3.05;;
51438;SDS011;38816;51.142;-0.974;2022-08-21T03:51:50;16.63;;;3.42;;
51438;SDS011;38816;51.142;-0.974;2022-08-21T03:54:15;20.55;;;2.80;;
51438;SDS011;38816;51.142;-0.974;2022-08-21T03:56:41;14.93;;;2.83;;
51438;SDS011;38816;51.142;-0.974;2022-08-21T03:59:07;15.18;;;3.05;;
51438;SDS011;38816;51.142;-0.974;2022-08-21T04:01:32;17.02;;;2.88;;
51438;SDS011;38816;51.142;-0.974;2022-08-21T04:03:58;21.77;;;3.10;;
51438;SDS011;38816;51.142;-0.974;2022-08-21T04:06:24;12.63;;;2.60;;
51438;SDS011;38816;51.142;-0.974;2022-08-21T04:08:51;13.77;;;2.92;;
51438;SDS011;38816;51.142;-0.974;2022-08-21T04:11:17;14.38;;;2.90;;
51438;SDS011;38816;51.142;-0.974;2022-08-21T04:13:43;13.15;;;2.45;;
51438;SDS011;38816;51.142;-0.974;2022-08-21T04:16:08;13.80;;;2.72;;
51438;SDS011;38816;51.142;-0.974;2022-08-21T04:18:34;10.90;;;2.42;;
51438;SDS011;38816;51.142;-0.974;2022-08-21T04:20:59;11.35;;;2.75;;
51438;SDS011;38816;51.142;-0.974;2022-08-21T04:23:26;11.85;;;2.50;;
51438;SDS011;38816;51.142;-0.974;2022-08-21T04:25:53;10.57;;;2.60;;
51438;SDS011;38816;51.142;-0.974;2022-08-21T04:28:20;13.23;;;2.40;;
51438;SDS011;38816;51.142;-0.974;2022-08-21T04:30:47;10.13;;;2.95;;
51438;SDS011;38816;51.142;-0.974;2022-08-21T04:33:13;14.35;;;2.95;;
51438;SDS011;38816;51.142;-0.974;2022-08-21T04:35:39;12.32;;;2.28;;
51438;SDS011;38816;51.142;-0.974;2022-08-21T04:38:06;15.20;;;3.03;;
51438;SDS011;38816;51.142;-0.974;2022-08-21T04:40:32;14.25;;;2.42;;
51438;SDS011;38816;51.142;-0.974;2022-08-21T04:43:00;12.88;;;2.78;;
51438;SDS011;38816;51.142;-0.974;2022-08-21T04:45:29;9.18;;;2.60;;
51438;SDS011;38816;51.142;-0.974;2022-08-21T04:47:57;13.55;;;2.70;;
51438;SDS011;38816;51.142;-0.974;2022-08-21T04:50:29;11.18;;;3.00;;
51438;SDS011;38816;51.142;-0.974;2022-08-21T04:53:07;8.85;;;3.17;;
51438;SDS011;38816;51.142;-0.974;2022-08-21T04:55:39;14.77;;;3.47;;
51438;SDS011;38816;51.142;-0.974;2022-08-21T04:58:07;18.23;;;4.15;;
51438;SDS011;38816;51.142;-0.974;2022-08-21T05:00:36;11.57;;;3.38;;
51438;SDS011;38816;51.142;-0.974;2022-08-21T05:03:02;18.88;;;3.08;;
51438;SDS011;38816;51.142;-0.974;2022-08-21T05:05:30;13.90;;;2.97;;
51438;SDS011;38816;51.142;-0.974;2022-08-21T05:07:57;10.98;;;2.90;;
51438;SDS011;38816;51.142;-0.974;2022-08-21T05:10:26;8.02;;;2.35;;
51438;SDS011;38816;51.142;-0.974;2022-08-21T05:12:51;14.80;;;2.67;;
51438;SDS011;38816;51.142;-0.974;2022-08-21T05:15:17;6.93;;;2.60;;
51438;SDS011;38816;51.142;-0.974;2022-08-21T05:17:43;12.38;;;2.85;;
51438;SDS011;38816;51.142;-0.974;2022-08-21T05:20:09;17.95;;;3.33;;
51438;SDS011;38816;51.142;-0.974;2022-08-21T05:22:36;13.40;;;2.78;;
51438;SDS011;38816;51.142;-0.974;2022-08-21T05:25:02;13.50;;;2.53;;
51438;SDS011;38816;51.142;-0.974;2022-08-21T05:27:28;16.38;;;3.83;;
51438;SDS011;38816;51.142;-0.974;2022-08-21T05:29:55;12.57;;;3.22;;
51438;SDS011;38816;51.142;-0.974;2022-08-21T05:32:21;13.80;;;2.72;;
51438;SDS011;38816;51.142;-0.974;2022-08-21T05:34:46;12.18;;;2.63;;
51438;SDS011;38816;51.142;-0.974;2022-08-21T05:37:12;13.80;;;2.88;;
51438;SDS011;38816;51.142;-0.974;2022-08-21T05:39:37;15.50;;;3.03;;
51438;SDS011;38816;51.142;-0.974;2022-08-21T05:42:03;10.13;;;2.47;;
51438;SDS011;38816;51.142;-0.974;2022-08-21T05:44:28;15.23;;;2.50;;
51438;SDS011;38816;51.142;-0.974;2022-08-21T05:46:54;7.63;;;2.63;;
51438;SDS011;38816;51.142;-0.974;2022-08-21T05:49:19;13.73;;;2.42;;
51438;SDS011;38816;51.142;-0.974;2022-08-21T05:51:44;8.13;;;2.38;;
51438;SDS011;38816;51.142;-0.974;2022-08-21T05:54:10;13.13;;;2.53;;
51438;SDS011;38816;51.142;-0.974;2022-08-21T05:56:36;13.18;;;2.42;;
51438;SDS011;38816;51.142;-0.974;2022-08-21T05:59:02;15.75;;;3.25;;
51438;SDS011;38816;51.142;-0.974;2022-08-21T06:01:27;20.15;;;3.50;;
51438;SDS011;38816;51.142;-0.974;2022-08-21T06:03:53;8.57;;;2.35;;
51438;SDS011;38816;51.142;-0.974;2022-08-21T06:06:19;12.20;;;2.55;;
51438;SDS011;38816;51.142;-0.974;2022-08-21T06:08:44;18.25;;;2.55;;
51438;SDS011;38816;51.142;-0.974;2022-08-21T06:11:10;10.65;;;2.60;;
51438;SDS011;38816;51.142;-0.974;2022-08-21T06:13:35;10.50;;;2.25;;
51438;SDS011;38816;51.142;-0.974;2022-08-21T06:16:02;14.85;;;2.65;;
51438;SDS011;38816;51.142;-0.974;2022-08-21T06:18:36;17.15;;;2.33;;
51438;SDS011;38816;51.142;-0.974;2022-08-21T06:21:02;13.88;;;2.40;;
51438;SDS011;38816;51.142;-0.974;2022-08-21T06:23:28;13.23;;;2.20;;
51438;SDS011;38816;51.142;-0.974;2022-08-21T06:25:54;10.15;;;1.92;;
51438;SDS011;38816;51.142;-0.974;2022-08-21T06:28:19;13.57;;;2.30;;
51438;SDS011;38816;51.142;-0.974;2022-08-21T06:30:45;14.05;;;2.50;;
51438;SDS011;38816;51.142;-0.974;2022-08-21T06:33:10;15.27;;;2.70;;
51438;SDS011;38816;51.142;-0.974;2022-08-21T06:35:36;11.75;;;2.45;;
51438;SDS011;38816;51.142;-0.974;2022-08-21T06:38:02;16.42;;;2.58;;
51438;SDS011;38816;51.142;-0.974;2022-08-21T06:40:28;8.75;;;2.25;;
51438;SDS011;38816;51.142;-0.974;2022-08-21T06:42:54;11.30;;;2.45;;
51438;SDS011;38816;51.142;-0.974;2022-08-21T06:45:20;9.63;;;2.10;;
51438;SDS011;38816;51.142;-0.974;2022-08-21T06:47:46;13.60;;;2.40;;
51438;SDS011;38816;51.142;-0.974;2022-08-21T06:50:12;11.98;;;2.00;;
51438;SDS011;38816;51.142;-0.974;2022-08-21T06:52:37;8.10;;;2.00;;
51438;SDS011;38816;51.142;-0.974;2022-08-21T06:55:09;13.52;;;2.40;;
51438;SDS011;38816;51.142;-0.974;2022-08-21T06:57:37;6.07;;;1.92;;
51438;SDS011;38816;51.142;-0.974;2022-08-21T07:00:03;14.00;;;2.95;;
51438;SDS011;38816;51.142;-0.974;2022-08-21T07:02:31;19.13;;;2.40;;
51438;SDS011;38816;51.142;-0.974;2022-08-21T07:04:58;14.57;;;2.40;;
51438;SDS011;38816;51.142;-0.974;2022-08-21T07:07:23;13.57;;;2.25;;
51438;SDS011;38816;51.142;-0.974;2022-08-21T07:09:48;14.65;;;2.33;;
51438;SDS011;38816;51.142;-0.974;2022-08-21T07:12:14;16.52;;;2.30;;
51438;SDS011;38816;51.142;-0.974;2022-08-21T07:14:39;9.18;;;1.95;;
51438;SDS011;38816;51.142;-0.974;2022-08-21T07:17:05;12.40;;;2.00;;
51438;SDS011;38816;51.142;-0.974;2022-08-21T07:19:30;11.73;;;2.33;;
51438;SDS011;38816;51.142;-0.974;2022-08-21T07:21:58;12.00;;;2.50;;
51438;SDS011;38816;51.142;-0.974;2022-08-21T07:24:26;11.73;;;2.45;;
51438;SDS011;38816;51.142;-0.974;2022-08-21T07:26:52;12.38;;;2.28;;
51438;SDS011;38816;51.142;-0.974;2022-08-21T07:29:17;16.05;;;2.35;;
51438;SDS011;38816;51.142;-0.974;2022-08-21T07:31:43;11.65;;;2.50;;
51438;SDS011;38816;51.142;-0.974;2022-08-21T07:34:09;9.30;;;2.22;;
51438;SDS011;38816;51.142;-0.974;2022-08-21T07:36:35;9.55;;;1.90;;
51438;SDS011;38816;51.142;-0.974;2022-08-21T07:39:00;7.85;;;2.00;;
51438;SDS011;38816;51.142;-0.974;2022-08-21T07:41:26;6.55;;;1.73;;
51438;SDS011;38816;51.142;-0.974;2022-08-21T07:43:54;6.80;;;1.92;;
51438;SDS011;38816;51.142;-0.974;2022-08-21T07:46:22;15.25;;;3.10;;
51438;SDS011;38816;51.142;-0.974;2022-08-21T07:48:48;10.20;;;2.28;;
51438;SDS011;38816;51.142;-0.974;2022-08-21T07:51:14;12.95;;;2.60;;
51438;SDS011;38816;51.142;-0.974;2022-08-21T07:53:41;11.18;;;1.98;;
51438;SDS011;38816;51.142;-0.974;2022-08-21T07:56:12;9.73;;;2.45;;
51438;SDS011;38816;51.142;-0.974;2022-08-21T07:58:37;9.63;;;2.00;;
51438;SDS011;38816;51.142;-0.974;2022-08-21T08:01:03;11.52;;;1.90;;
51438;SDS011;38816;51.142;-0.974;2022-08-21T08:03:31;11.20;;;1.88;;
51438;SDS011;38816;51.142;-0.974;2022-08-21T08:05:56;7.18;;;1.70;;
51438;SDS011;38816;51.142;-0.974;2022-08-21T08:08:22;10.52;;;1.92;;
51438;SDS011;38816;51.142;-0.974;2022-08-21T08:10:48;6.05;;;1.90;;
51438;SDS011;38816;51.142;-0.974;2022-08-21T08:13:14;10.63;;;2.95;;
51438;SDS011;38816;51.142;-0.974;2022-08-21T08:15:40;11.07;;;1.80;;
51438;SDS011;38816;51.142;-0.974;2022-08-21T08:18:06;9.13;;;1.70;;
51438;SDS011;38816;51.142;-0.974;2022-08-21T08:20:31;10.88;;;2.10;;
51438;SDS011;38816;51.142;-0.974;2022-08-21T08:22:58;6.75;;;2.00;;
51438;SDS011;38816;51.142;-0.974;2022-08-21T08:25:23;9.38;;;2.10;;
51438;SDS011;38816;51.142;-0.974;2022-08-21T08:27:50;9.73;;;1.88;;
51438;SDS011;38816;51.142;-0.974;2022-08-21T08:30:17;14.38;;;2.25;;
51438;SDS011;38816;51.142;-0.974;2022-08-21T08:32:43;7.45;;;2.00;;
51438;SDS011;38816;51.142;-0.974;2022-08-21T08:35:10;8.32;;;1.88;;
51438;SDS011;38816;51.142;-0.974;2022-08-21T08:37:36;7.32;;;1.50;;
51438;SDS011;38816;51.142;-0.974;2022-08-21T08:40:05;8.88;;;1.67;;
51438;SDS011;38816;51.142;-0.974;2022-08-21T08:42:33;12.30;;;1.90;;
51438;SDS011;38816;51.142;-0.974;2022-08-21T08:45:11;11.57;;;1.77;;
51438;SDS011;38816;51.142;-0.974;2022-08-21T08:47:40;7.97;;;1.77;;
51438;SDS011;38816;51.142;-0.974;2022-08-21T08:50:19;7.40;;;1.70;;
51438;SDS011;38816;51.142;-0.974;2022-08-21T08:52:49;11.60;;;1.88;;
51438;SDS011;38816;51.142;-0.974;2022-08-21T08:55:23;6.20;;;1.45;;
51438;SDS011;38816;51.142;-0.974;2022-08-21T08:57:53;9.55;;;1.73;;
51438;SDS011;38816;51.142;-0.974;2022-08-21T09:00:20;8.27;;;1.70;;
51438;SDS011;38816;51.142;-0.974;2022-08-21T09:02:47;8.75;;;1.52;;
51438;SDS011;38816;51.142;-0.974;2022-08-21T09:05:21;4.13;;;1.48;;
51438;SDS011;38816;51.142;-0.974;2022-08-21T09:18:31;10.65;;;1.73;;
51438;SDS011;38816;51.142;-0.974;2022-08-21T09:26:56;8.27;;;1.83;;
51438;SDS011;38816;51.142;-0.974;2022-08-21T09:29:41;7.15;;;1.40;;
51438;SDS011;38816;51.142;-0.974;2022-08-21T09:32:10;12.25;;;1.67;;
51438;SDS011;38816;51.142;-0.974;2022-08-21T09:34:56;7.30;;;1.60;;
51438;SDS011;38816;51.142;-0.974;2022-08-21T09:37:29;10.57;;;1.67;;
51438;SDS011;38816;51.142;-0.974;2022-08-21T09:39:56;11.98;;;1.63;;
51438;SDS011;38816;51.142;-0.974;2022-08-21T09:42:24;8.27;;;1.80;;
51438;SDS011;38816;51.142;-0.974;2022-08-21T09:47:54;7.25;;;1.58;;
51438;SDS011;38816;51.142;-0.974;2022-08-21T09:50:21;5.80;;;1.50;;
51438;SDS011;38816;51.142;-0.974;2022-08-21T09:52:50;7.70;;;1.40;;
51438;SDS011;38816;51.142;-0.974;2022-08-21T09:55:25;4.45;;;1.48;;
51438;SDS011;38816;51.142;-0.974;2022-08-21T09:58:18;5.68;;;1.42;;
51438;SDS011;38816;51.142;-0.974;2022-08-21T10:00:45;12.43;;;1.80;;
51438;SDS011;38816;51.142;-0.974;2022-08-21T10:03:13;7.70;;;1.90;;
51438;SDS011;38816;51.142;-0.974;2022-08-21T10:05:53;9.77;;;1.67;;
51438;SDS011;38816;51.142;-0.974;2022-08-21T10:08:30;9.55;;;1.40;;
51438;SDS011;38816;51.142;-0.974;2022-08-21T10:11:02;6.28;;;1.55;;
51438;SDS011;38816;51.142;-0.974;2022-08-21T10:13:39;9.75;;;1.45;;
51438;SDS011;38816;51.142;-0.974;2022-08-21T10:24:38;4.78;;;1.10;;
51438;SDS011;38816;51.142;-0.974;2022-08-21T10:27:14;10.95;;;1.40;;
51438;SDS011;38816;51.142;-0.974;2022-08-21T10:37:49;7.03;;;1.73;;
51438;SDS011;38816;51.142;-0.974;2022-08-21T10:48:53;6.50;;;1.40;;
51438;SDS011;38816;51.142;-0.974;2022-08-21T10:51:37;6.20;;;1.38;;
51438;SDS011;38816;51.142;-0.974;2022-08-21T10:54:26;6.85;;;1.80;;
51438;SDS011;38816;51.142;-0.974;2022-08-21T10:57:23;7.28;;;1.52;;
51438;SDS011;38816;51.142;-0.974;2022-08-21T11:00:06;7.63;;;1.40;;
51438;SDS011;38816;51.142;-0.974;2022-08-21T11:02:40;7.00;;;1.50;;
51438;SDS011;38816;51.142;-0.974;2022-08-21T11:07:47;7.05;;;1.73;;
51438;SDS011;38816;51.142;-0.974;2022-08-21T11:10:23;4.70;;;1.60;;
51438;SDS011;38816;51.142;-0.974;2022-08-21T11:19:06;4.57;;;1.58;;
51438;SDS011;38816;51.142;-0.974;2022-08-21T11:21:39;8.82;;;1.83;;
51438;SDS011;38816;51.142;-0.974;2022-08-21T11:27:36;10.95;;;1.73;;
51438;SDS011;38816;51.142;-0.974;2022-08-21T11:30:09;6.78;;;1.58;;
51438;SDS011;38816;51.142;-0.974;2022-08-21T11:38:12;7.28;;;1.70;;
51438;SDS011;38816;51.142;-0.974;2022-08-21T11:41:19;5.05;;;1.52;;
51438;SDS011;38816;51.142;-0.974;2022-08-21T11:49:27;5.28;;;1.40;;
51438;SDS011;38816;51.142;-0.974;2022-08-21T11:57:25;5.50;;;1.48;;
51438;SDS011;38816;51.142;-0.974;2022-08-21T12:00:06;6.38;;;1.38;;
51438;SDS011;38816;51.142;-0.974;2022-08-21T12:02:40;3.80;;;1.27;;
51438;SDS011;38816;51.142;-0.974;2022-08-21T12:05:21;8.73;;;1.60;;
51438;SDS011;38816;51.142;-0.974;2022-08-21T12:08:01;7.15;;;1.42;;
51438;SDS011;38816;51.142;-0.974;2022-08-21T12:11:07;5.40;;;1.50;;
51438;SDS011;38816;51.142;-0.974;2022-08-21T12:13:38;6.60;;;1.13;;
51438;SDS011;38816;51.142;-0.974;2022-08-21T12:16:10;15.70;;;1.80;;
51438;SDS011;38816;51.142;-0.974;2022-08-21T12:18:36;9.20;;;1.38;;
51438;SDS011;38816;51.142;-0.974;2022-08-21T12:21:24;5.45;;;1.73;;
51438;SDS011;38816;51.142;-0.974;2022-08-21T12:26:53;8.27;;;1.63;;
51438;SDS011;38816;51.142;-0.974;2022-08-21T12:31:59;6.68;;;1.35;;
51438;SDS011;38816;51.142;-0.974;2022-08-21T12:37:14;5.88;;;1.25;;
51438;SDS011;38816;51.142;-0.974;2022-08-21T12:39:46;3.90;;;1.53;;
51438;SDS011;38816;51.142;-0.974;2022-08-21T12:42:17;3.63;;;1.40;;
51438;SDS011;38816;51.142;-0.974;2022-08-21T12:44:51;4.80;;;1.60;;
51438;SDS011;38816;51.142;-0.974;2022-08-21T12:52:32;5.95;;;1.58;;
51438;SDS011;38816;51.142;-0.974;2022-08-21T12:55:00;3.75;;;1.23;;
51438;SDS011;38816;51.142;-0.974;2022-08-21T12:57:28;3.35;;;1.30;;
51438;SDS011;38816;51.142;-0.974;2022-08-21T13:00:00;8.52;;;1.60;;
51438;SDS011;38816;51.142;-0.974;2022-08-21T13:02:35;4.78;;;1.80;;
51438;SDS011;38816;51.142;-0.974;2022-08-21T13:05:05;5.35;;;1.55;;
51438;SDS011;38816;51.142;-0.974;2022-08-21T13:07:35;5.57;;;2.25;;
51438;SDS011;38816;51.142;-0.974;2022-08-21T13:10:14;4.97;;;2.05;;
51438;SDS011;38816;51.142;-0.974;2022-08-21T13:12:45;3.95;;;1.30;;
51438;SDS011;38816;51.142;-0.974;2022-08-21T13:15:11;4.40;;;1.30;;
51438;SDS011;38816;51.142;-0.974;2022-08-21T13:17:39;4.78;;;1.75;;
51438;SDS011;38816;51.142;-0.974;2022-08-21T13:20:18;6.88;;;1.83;;
51438;SDS011;38816;51.142;-0.974;2022-08-21T13:22:46;4.68;;;1.58;;
51438;SDS011;38816;51.142;-0.974;2022-08-21T13:25:13;4.55;;;1.80;;
51438;SDS011;38816;51.142;-0.974;2022-08-21T13:30:30;5.80;;;1.80;;
51438;SDS011;38816;51.142;-0.974;2022-08-21T13:32:57;9.25;;;2.03;;
51438;SDS011;38816;51.142;-0.974;2022-08-21T13:35:26;7.38;;;1.63;;
51438;SDS011;38816;51.142;-0.974;2022-08-21T13:37:55;4.65;;;1.30;;
51438;SDS011;38816;51.142;-0.974;2022-08-21T13:40:24;11.68;;;1.92;;
51438;SDS011;38816;51.142;-0.974;2022-08-21T13:42:54;5.75;;;1.90;;
51438;SDS011;38816;51.142;-0.974;2022-08-21T13:45:25;9.27;;;2.03;;
51438;SDS011;38816;51.142;-0.974;2022-08-21T13:47:56;10.70;;;2.13;;
51438;SDS011;38816;51.142;-0.974;2022-08-21T13:50:22;4.40;;;1.98;;
51438;SDS011;38816;51.142;-0.974;2022-08-21T13:53:36;6.20;;;1.60;;
51438;SDS011;38816;51.142;-0.974;2022-08-21T13:55:46;4.30;;;1.70;;
51438;SDS011;38816;51.142;-0.974;2022-08-21T13:58:12;5.80;;;2.15;;
51438;SDS011;38816;51.142;-0.974;2022-08-21T14:00:44;4.50;;;1.77;;
51438;SDS011;38816;51.142;-0.974;2022-08-21T14:03:23;6.55;;;2.25;;
51438;SDS011;38816;51.142;-0.974;2022-08-21T14:05:53;4.25;;;1.80;;
51438;SDS011;38816;51.142;-0.974;2022-08-21T14:08:27;6.32;;;1.95;;
51438;SDS011;38816;51.142;-0.974;2022-08-21T14:10:57;5.85;;;1.80;;
51438;SDS011;38816;51.142;-0.974;2022-08-21T14:13:29;12.02;;;2.20;;
51438;SDS011;38816;51.142;-0.974;2022-08-21T14:16:02;8.63;;;2.13;;
51438;SDS011;38816;51.142;-0.974;2022-08-21T14:18:28;7.07;;;1.98;;
51438;SDS011;38816;51.142;-0.974;2022-08-21T14:21:04;7.88;;;2.05;;
51438;SDS011;38816;51.142;-0.974;2022-08-21T14:23:31;7.30;;;2.03;;
51438;SDS011;38816;51.142;-0.974;2022-08-21T14:26:00;10.32;;;2.10;;
51438;SDS011;38816;51.142;-0.974;2022-08-21T14:30:57;6.25;;;2.00;;
51438;SDS011;38816;51.142;-0.974;2022-08-21T14:33:27;6.60;;;1.80;;
51438;SDS011;38816;51.142;-0.974;2022-08-21T14:35:55;7.90;;;2.00;;
51438;SDS011;38816;51.142;-0.974;2022-08-21T14:38:22;9.45;;;1.90;;
51438;SDS011;38816;51.142;-0.974;2022-08-21T14:40:51;6.65;;;1.55;;
51438;SDS011;38816;51.142;-0.974;2022-08-21T14:43:19;9.85;;;2.28;;
51438;SDS011;38816;51.142;-0.974;2022-08-21T14:45:45;6.15;;;1.80;;
51438;SDS011;38816;51.142;-0.974;2022-08-21T14:48:11;5.65;;;1.90;;
51438;SDS011;38816;51.142;-0.974;2022-08-21T14:50:37;5.03;;;1.70;;
51438;SDS011;38816;51.142;-0.974;2022-08-21T14:53:03;7.93;;;1.98;;
51438;SDS011;38816;51.142;-0.974;2022-08-21T14:55:29;6.75;;;1.85;;
51438;SDS011;38816;51.142;-0.974;2022-08-21T14:58:16;9.75;;;1.80;;
51438;SDS011;38816;51.142;-0.974;2022-08-21T15:00:41;7.05;;;2.35;;
51438;SDS011;38816;51.142;-0.974;2022-08-21T15:03:07;4.65;;;1.50;;
51438;SDS011;38816;51.142;-0.974;2022-08-21T15:05:32;6.55;;;1.75;;
51438;SDS011;38816;51.142;-0.974;2022-08-21T15:07:58;7.68;;;1.95;;
51438;SDS011;38816;51.142;-0.974;2022-08-21T15:10:23;6.93;;;1.85;;
51438;SDS011;38816;51.142;-0.974;2022-08-21T15:12:48;4.97;;;1.60;;
51438;SDS011;38816;51.142;-0.974;2022-08-21T15:15:14;4.85;;;1.70;;
51438;SDS011;38816;51.142;-0.974;2022-08-21T15:17:39;6.68;;;1.60;;
51438;SDS011;38816;51.142;-0.974;2022-08-21T15:20:05;9.95;;;2.05;;
51438;SDS011;38816;51.142;-0.974;2022-08-21T15:22:32;11.23;;;2.42;;
51438;SDS011;38816;51.142;-0.974;2022-08-21T15:24:58;5.88;;;1.98;;
51438;SDS011;38816;51.142;-0.974;2022-08-21T15:27:23;7.55;;;1.90;;
51438;SDS011;38816;51.142;-0.974;2022-08-21T15:29:49;11.63;;;2.30;;
51438;SDS011;38816;51.142;-0.974;2022-08-21T15:32:19;4.88;;;1.85;;
51438;SDS011;38816;51.142;-0.974;2022-08-21T15:34:47;6.53;;;1.90;;
51438;SDS011;38816;51.142;-0.974;2022-08-21T15:37:14;5.63;;;1.50;;
51438;SDS011;38816;51.142;-0.974;2022-08-21T15:39:39;7.10;;;2.10;;
51438;SDS011;38816;51.142;-0.974;2022-08-21T15:42:05;6.90;;;1.60;;
51438;SDS011;38816;51.142;-0.974;2022-08-21T15:44:31;10.32;;;2.10;;
51438;SDS011;38816;51.142;-0.974;2022-08-21T15:46:58;8.05;;;1.67;;
51438;SDS011;38816;51.142;-0.974;2022-08-21T15:49:23;5.78;;;1.88;;
51438;SDS011;38816;51.142;-0.974;2022-08-21T15:51:49;10.85;;;1.90;;
51438;SDS011;38816;51.142;-0.974;2022-08-21T15:54:15;12.80;;;1.90;;
51438;SDS011;38816;51.142;-0.974;2022-08-21T15:56:40;6.43;;;1.80;;
51438;SDS011;38816;51.142;-0.974;2022-08-21T15:59:15;4.90;;;1.60;;
51438;SDS011;38816;51.142;-0.974;2022-08-21T16:01:43;4.93;;;1.70;;
51438;SDS011;38816;51.142;-0.974;2022-08-21T16:04:10;9.18;;;2.03;;
51438;SDS011;38816;51.142;-0.974;2022-08-21T16:06:40;8.13;;;2.00;;
51438;SDS011;38816;51.142;-0.974;2022-08-21T16:09:05;9.70;;;2.00;;
51438;SDS011;38816;51.142;-0.974;2022-08-21T16:11:31;10.18;;;2.35;;